Time;durP1;ratioP1;P1;durP2;ratioP2;P2;SDS_P1;SDS_P2;PMS_P1;PMS_P2;Temp;Humidity;BMP_temperature;BMP_pressure;BME280_temperature;BME280_humidity;BME280_pressure;Samples;Min_cycle;Max_cycle;Signal;HPM_P1;HPM_P2
2023/09/25 00:01:15;;;;;;;;;3.67;3.67;;;;;16.43;56.85;101567.56;5063873;27;46482;-70
2023/09/25 00:03:41;;;;;;;;;6.33;4.67;;;;;16.47;57.12;101571.06;5067291;27;45524;-67
2023/09/25 00:06:07;;;;;;;;;3.67;2.00;;;;;16.57;56.67;101571.84;5065866;27;45526;-69
2023/09/25 00:08:32;;;;;;;;;5.00;3.00;;;;;16.59;56.53;101580.66;5068913;27;45618;-69
2023/09/25 00:10:58;;;;;;;;;4.33;3.67;;;;;16.51;56.62;101580.69;5077463;27;45520;-70
2023/09/25 00:13:23;;;;;;;;;3.00;3.00;;;;;16.47;56.55;101579.88;5077481;27;45471;-68
2023/09/25 00:15:49;;;;;;;;;3.33;3.00;;;;;16.45;56.76;101579.00;5079927;27;45557;-71
2023/09/25 00:18:15;;;;;;;;;5.00;5.00;;;;;16.44;56.71;101584.28;5078786;27;45457;-71
2023/09/25 00:20:48;;;;;;;;;6.00;4.00;;;;;16.28;56.91;101563.28;5078248;27;46183;-72
2023/09/25 00:23:13;;;;;;;;;9.00;3.67;;;;;16.32;57.27;101577.34;5076960;28;46704;-72
2023/09/25 00:25:39;;;;;;;;;7.33;4.00;;;;;16.27;57.24;101579.16;5078469;28;45215;-70
2023/09/25 00:28:05;;;;;;;;;4.67;4.67;;;;;16.30;57.56;101587.94;5079023;27;45351;-70
2023/09/25 00:30:36;;;;;;;;;6.00;4.00;;;;;16.28;57.62;101594.13;5079760;28;46117;-70
2023/09/25 00:33:02;;;;;;;;;5.00;4.00;;;;;16.21;57.38;101582.72;5075896;27;45693;-70
2023/09/25 00:35:28;;;;;;;;;3.00;3.00;;;;;16.22;57.85;101595.03;5079568;27;45326;-71
2023/09/25 00:37:54;;;;;;;;;5.00;4.33;;;;;16.20;57.73;101591.53;5078900;27;45539;-72
2023/09/25 00:40:24;;;;;;;;;4.67;4.67;;;;;16.14;58.09;101585.44;5077895;27;46123;-69
2023/09/25 00:42:53;;;;;;;;;6.33;4.00;;;;;16.12;57.91;101574.88;5078178;27;45823;-69
2023/09/25 00:45:20;;;;;;;;;4.33;4.33;;;;;16.14;57.95;101594.25;5076348;27;45444;-71
2023/09/25 00:47:46;;;;;;;;;4.67;4.00;;;;;16.04;57.92;101576.66;5077488;28;45570;-69
2023/09/25 00:50:12;;;;;;;;;4.00;4.00;;;;;16.00;58.16;101570.56;5078961;27;46650;-70
2023/09/25 00:52:43;;;;;;;;;3.33;3.33;;;;;15.99;58.24;101563.53;5075649;27;45279;-70
2023/09/25 00:55:10;;;;;;;;;4.33;3.33;;;;;16.07;58.10;101584.59;5093719;27;45581;-69
2023/09/25 00:57:37;;;;;;;;;6.00;4.00;;;;;16.00;58.39;101575.84;5077698;27;45456;-69
2023/09/25 01:00:04;;;;;;;;;4.67;3.33;;;;;15.97;58.32;101572.31;5077684;27;45673;-70
2023/09/25 01:02:31;;;;;;;;;3.00;3.00;;;;;15.96;58.52;101575.88;5071606;27;45471;-70
2023/09/25 01:05:02;;;;;;;;;8.00;4.67;;;;;15.89;58.93;101580.31;5070222;27;45404;-69
2023/09/25 01:07:28;;;;;;;;;3.00;3.00;;;;;15.87;58.65;101580.34;5072171;27;45638;-70
2023/09/25 01:10:08;;;;;;;;;4.33;3.67;;;;;15.84;59.01;101580.34;5069192;28;46318;-69
2023/09/25 01:12:34;;;;;;;;;6.33;3.00;;;;;15.80;58.87;101572.44;5079184;27;45575;-68
2023/09/25 01:15:01;;;;;;;;;7.33;4.33;;;;;15.73;58.96;101570.72;5079424;27;45555;-68
2023/09/25 01:17:26;;;;;;;;;5.00;5.00;;;;;15.69;59.62;101573.34;5079320;27;45464;-67
2023/09/25 01:19:56;;;;;;;;;5.67;5.33;;;;;15.62;60.04;101571.63;5078030;27;45393;-68
2023/09/25 01:22:21;;;;;;;;;5.00;5.00;;;;;15.57;60.08;101567.28;5075230;27;45948;-68
2023/09/25 01:24:47;;;;;;;;;5.00;4.00;;;;;15.53;59.93;101562.91;5077777;27;45388;-70
2023/09/25 01:27:12;;;;;;;;;4.67;4.67;;;;;15.54;60.20;101568.19;5078599;27;45451;-68
2023/09/25 01:29:38;;;;;;;;;5.00;5.00;;;;;15.50;59.93;101566.44;5077773;27;45455;-67
2023/09/25 01:32:04;;;;;;;;;4.00;3.33;;;;;15.55;60.09;101559.34;5077864;27;45422;-71
2023/09/25 01:34:30;;;;;;;;;5.33;3.00;;;;;15.58;60.41;101569.03;5077352;27;45241;-71
2023/09/25 01:36:56;;;;;;;;;4.33;4.33;;;;;15.61;60.34;101583.09;5070654;27;45433;-70
2023/09/25 01:39:21;;;;;;;;;6.00;4.33;;;;;15.59;60.47;101582.22;5076861;27;45954;-68
2023/09/25 01:41:47;;;;;;;;;6.00;5.67;;;;;15.61;59.98;101574.28;5077640;27;45507;-69
2023/09/25 01:44:12;;;;;;;;;5.33;4.33;;;;;15.62;60.26;101576.03;5076461;27;45439;-69
2023/09/25 01:46:40;;;;;;;;;8.00;3.67;;;;;15.65;60.50;101576.03;5078713;27;45380;-67
2023/09/25 01:49:09;;;;;;;;;5.33;5.33;;;;;15.71;60.12;101589.25;5078485;27;45526;-70
2023/09/25 01:51:34;;;;;;;;;4.00;4.00;;;;;15.67;60.41;101576.91;5077131;27;46286;-70
2023/09/25 01:54:01;;;;;;;;;6.00;5.00;;;;;15.55;60.86;101576.97;5069109;27;45594;-69
2023/09/25 01:56:27;;;;;;;;;5.00;5.00;;;;;15.28;61.21;101555.09;5078849;27;45506;-69
2023/09/25 01:58:52;;;;;;;;;7.33;3.33;;;;;15.40;61.66;101569.97;5078395;27;46618;-68
2023/09/25 02:01:18;;;;;;;;;10.33;3.67;;;;;15.40;61.22;101567.34;5077009;27;45386;-71
2023/09/25 02:03:44;;;;;;;;;5.00;3.00;;;;;15.34;61.35;101556.81;5075875;27;45807;-71
2023/09/25 02:06:09;;;;;;;;;5.00;5.00;;;;;15.24;61.74;101548.06;5077194;27;45586;-70
2023/09/25 02:08:35;;;;;;;;;5.33;5.33;;;;;15.21;61.73;101551.59;5074589;27;48022;-71
2023/09/25 02:11:00;;;;;;;;;6.00;4.33;;;;;15.25;61.92;101574.44;5076581;27;45333;-69
2023/09/25 02:13:26;;;;;;;;;7.67;5.00;;;;;15.17;62.33;101567.47;5076638;27;45340;-71
2023/09/25 02:15:51;;;;;;;;;6.67;4.00;;;;;15.10;62.17;101557.81;5076847;27;45355;-70
2023/09/25 02:18:17;;;;;;;;;7.00;3.67;;;;;15.02;62.66;101555.19;5076503;28;45425;-71
2023/09/25 02:20:43;;;;;;;;;7.33;6.00;;;;;14.94;63.42;101562.25;5076432;27;45353;-69
2023/09/25 02:23:08;;;;;;;;;5.00;5.00;;;;;14.75;63.53;101532.41;5076113;27;45456;-69
2023/09/25 02:25:34;;;;;;;;;10.00;6.00;;;;;14.83;63.20;101565.78;5076865;28;45512;-69
2023/09/25 02:27:59;;;;;;;;;3.67;3.67;;;;;14.82;63.77;101569.31;5076720;27;46338;-70
2023/09/25 02:30:26;;;;;;;;;4.67;4.33;;;;;14.71;63.72;101554.38;5077541;27;45283;-71
2023/09/25 02:32:51;;;;;;;;;5.67;5.67;;;;;14.76;64.46;101577.25;5073119;27;45572;-71
2023/09/25 02:35:17;;;;;;;;;11.33;6.00;;;;;14.66;64.14;101564.94;5071011;27;45387;-71
2023/09/25 02:37:44;;;;;;;;;7.33;5.33;;;;;14.67;64.64;101573.75;5062097;27;46344;-71
2023/09/25 02:40:13;;;;;;;;;3.00;3.00;;;;;14.71;64.05;101579.00;5076759;27;45445;-71
2023/09/25 02:42:40;;;;;;;;;6.00;4.00;;;;;14.66;64.45;101577.25;5076599;27;45440;-71
2023/09/25 02:45:06;;;;;;;;;6.00;4.00;;;;;14.56;64.55;101569.34;5076770;27;46014;-71
2023/09/25 02:47:32;;;;;;;;;6.33;4.67;;;;;14.51;64.61;101565.81;5076110;27;45333;-71
2023/09/25 02:49:57;;;;;;;;;4.33;3.67;;;;;14.57;64.40;101563.22;5077947;27;45384;-71
2023/09/25 02:52:23;;;;;;;;;4.00;4.00;;;;;14.56;64.57;101568.47;5073825;27;45421;-71
2023/09/25 02:54:55;;;;;;;;;4.33;4.33;;;;;14.58;64.69;101564.06;5073166;27;45588;-71
2023/09/25 02:57:21;;;;;;;;;5.00;3.33;;;;;14.41;64.87;101542.97;5076189;27;45428;-70
2023/09/25 02:59:47;;;;;;;;;4.67;4.67;;;;;14.47;64.83;101568.44;5075746;27;45471;-70
2023/09/25 03:02:13;;;;;;;;;7.00;6.33;;;;;14.44;64.74;101569.31;5074620;28;45459;-71
2023/09/25 03:04:38;;;;;;;;;6.33;5.00;;;;;14.19;65.09;101552.66;5072029;27;45512;-72
2023/09/25 03:07:04;;;;;;;;;7.33;6.33;;;;;14.38;65.02;101579.88;5072425;28;45525;-70
2023/09/25 03:09:29;;;;;;;;;5.00;5.00;;;;;14.35;64.99;101578.09;5061516;27;45458;-72
2023/09/25 03:11:55;;;;;;;;;5.00;5.00;;;;;14.35;65.07;101579.88;5076061;27;45393;-70
2023/09/25 03:14:21;;;;;;;;;5.33;4.67;;;;;14.29;64.88;101569.34;5065494;27;45474;-70
2023/09/25 03:16:47;;;;;;;;;6.33;4.67;;;;;14.16;64.57;101544.72;5079346;27;45759;-70
2023/09/25 03:19:13;;;;;;;;;4.33;4.00;;;;;14.24;64.67;101566.72;5079242;27;45531;-67
2023/09/25 03:21:42;;;;;;;;;7.33;5.67;;;;;14.28;65.27;101572.84;5078888;27;45505;-70
2023/09/25 03:24:08;;;;;;;;;4.00;4.00;;;;;14.34;65.13;101589.53;5079561;27;45489;-70
2023/09/25 03:26:34;;;;;;;;;5.00;3.00;;;;;14.32;65.61;101586.03;5079140;27;45447;-71
2023/09/25 03:28:59;;;;;;;;;3.33;3.33;;;;;14.32;65.03;101582.50;5080333;27;45498;-70
2023/09/25 03:31:25;;;;;;;;;4.33;4.00;;;;;14.31;65.31;101568.47;5095368;27;45376;-69
2023/09/25 03:33:50;;;;;;;;;3.00;3.00;;;;;14.25;64.76;101563.19;5079264;27;45499;-70
2023/09/25 03:36:16;;;;;;;;;5.33;4.00;;;;;14.39;64.88;101584.28;5070875;27;45603;-70
2023/09/25 03:38:42;;;;;;;;;4.33;4.33;;;;;14.46;64.65;101598.34;5079477;27;45322;-70
2023/09/25 03:41:07;;;;;;;;;3.67;3.67;;;;;14.17;65.23;101568.47;5079270;27;45550;-71
2023/09/25 03:43:38;;;;;;;;;7.00;4.33;;;;;14.24;64.87;101585.16;5079016;27;45673;-70
2023/09/25 03:46:03;;;;;;;;;4.67;4.67;;;;;14.34;65.12;101602.72;5074126;27;46738;-71
2023/09/25 03:48:29;;;;;;;;;4.67;4.00;;;;;14.32;64.38;101593.06;5073039;27;45402;-72
2023/09/25 03:50:54;;;;;;;;;4.00;4.00;;;;;14.38;64.91;101607.13;5066052;27;45535;-71
2023/09/25 03:53:20;;;;;;;;;5.00;5.00;;;;;14.37;64.63;101599.19;5079498;27;45380;-72
2023/09/25 03:55:46;;;;;;;;;7.67;4.33;;;;;14.20;65.09;101576.34;5079429;27;46462;-71
2023/09/25 03:58:11;;;;;;;;;7.00;6.67;;;;;14.26;64.95;101593.94;5068959;27;45453;-72
2023/09/25 04:00:38;;;;;;;;;7.00;4.00;;;;;14.22;65.28;101594.81;5080413;27;45567;-71
2023/09/25 04:03:03;;;;;;;;;6.00;4.67;;;;;14.24;65.27;101593.06;5079073;27;45350;-71
2023/09/25 04:05:29;;;;;;;;;4.00;4.00;;;;;14.27;65.13;101600.97;5079481;27;45963;-71
2023/09/25 04:07:55;;;;;;;;;6.33;3.33;;;;;14.28;64.95;101599.19;5078592;28;45434;-70
2023/09/25 04:10:21;;;;;;;;;6.00;4.00;;;;;14.31;64.78;101605.34;5078854;27;45420;-69
2023/09/25 04:12:47;;;;;;;;;6.67;5.00;;;;;14.26;65.48;101615.03;5077425;27;45456;-71
2023/09/25 04:15:14;;;;;;;;;2.33;2.33;;;;;14.19;65.17;101606.22;5078259;27;46312;-71
2023/09/25 04:17:42;;;;;;;;;5.00;5.00;;;;;14.16;65.00;101610.59;5078345;27;45621;-70
2023/09/25 04:20:15;;;;;;;;;6.00;6.00;;;;;14.15;65.50;101614.13;5078275;27;45483;-68
2023/09/25 04:22:40;;;;;;;;;6.33;4.67;;;;;14.12;65.35;101622.03;5078752;27;45445;-71
2023/09/25 04:25:10;;;;;;;;;5.00;4.00;;;;;14.23;65.30;101619.41;5079444;27;46147;-67
2023/09/25 04:27:35;;;;;;;;;7.33;4.00;;;;;14.28;64.87;101620.28;5072044;27;45651;-71
2023/09/25 04:30:03;;;;;;;;;3.00;3.00;;;;;14.23;64.41;101600.94;5079472;27;45410;-71
2023/09/25 04:32:28;;;;;;;;;6.00;5.00;;;;;14.28;64.53;101609.72;5082107;27;45582;-70
2023/09/25 04:34:54;;;;;;;;;5.67;5.33;;;;;14.19;64.97;101608.00;5080185;27;45544;-71
2023/09/25 04:37:20;;;;;;;;;6.33;5.33;;;;;14.14;65.41;101613.25;5079833;27;45504;-70
2023/09/25 04:39:46;;;;;;;;;2.00;2.00;;;;;14.11;65.30;101612.34;5073980;27;45515;-68
2023/09/25 04:42:12;;;;;;;;;6.00;6.00;;;;;14.15;65.46;101620.25;5054373;28;45533;-66
2023/09/25 04:44:38;;;;;;;;;5.67;5.67;;;;;14.09;65.71;101622.00;5071638;27;45692;-66
2023/09/25 04:47:04;;;;;;;;;5.67;5.67;;;;;14.03;65.46;101614.13;5078354;27;45444;-69
2023/09/25 04:49:30;;;;;;;;;5.67;4.00;;;;;14.05;65.56;101628.13;5077556;27;45552;-68
2023/09/25 04:51:56;;;;;;;;;7.00;5.67;;;;;13.94;66.22;101612.31;5071549;27;45522;-69
2023/09/25 04:54:22;;;;;;;;;7.00;6.33;;;;;14.04;65.47;101627.25;5077404;27;46089;-71
2023/09/25 04:56:47;;;;;;;;;5.67;5.00;;;;;13.98;65.76;101633.41;5078124;27;45534;-68
2023/09/25 04:59:13;;;;;;;;;7.00;5.00;;;;;13.92;66.07;101637.78;5077672;27;45385;-69
2023/09/25 05:01:39;;;;;;;;;9.00;7.00;;;;;13.93;65.85;101636.91;5077654;27;45359;-67
2023/09/25 05:04:05;;;;;;;;;7.33;6.00;;;;;13.94;66.39;101633.41;5077336;27;45469;-69
2023/09/25 05:06:31;;;;;;;;;6.67;4.67;;;;;13.94;65.61;101631.63;5091660;27;45645;-68
2023/09/25 05:08:57;;;;;;;;;7.67;6.00;;;;;13.92;65.87;101636.00;5077530;27;45455;-69
2023/09/25 05:11:22;;;;;;;;;5.00;4.33;;;;;13.94;65.54;101626.38;5079091;27;45737;-67
2023/09/25 05:13:58;;;;;;;;;6.33;4.67;;;;;13.86;65.98;101636.00;5078671;27;46472;-70
2023/09/25 05:16:23;;;;;;;;;2.00;1.00;;;;;13.97;65.55;101650.06;5077825;27;45393;-72
2023/09/25 05:18:50;;;;;;;;;7.00;5.00;;;;;13.90;66.13;101647.41;5077169;27;45402;-70
2023/09/25 05:21:16;;;;;;;;;13.00;8.33;;;;;13.76;65.94;101640.38;5077445;27;45475;-71
2023/09/25 05:23:42;;;;;;;;;11.33;6.33;;;;;13.74;66.52;101644.75;5074305;27;46541;-68
2023/09/25 05:26:08;;;;;;;;;5.67;5.67;;;;;13.75;66.70;101640.38;5078871;28;45615;-69
2023/09/25 05:28:33;;;;;;;;;6.00;4.00;;;;;13.77;66.07;101644.75;5073753;27;45467;-70
2023/09/25 05:30:59;;;;;;;;;7.67;4.33;;;;;13.72;66.30;101638.59;5076739;27;45483;-71
2023/09/25 05:33:25;;;;;;;;;5.00;5.00;;;;;13.71;66.34;101651.75;5077191;27;46575;-72
2023/09/25 05:35:50;;;;;;;;;9.33;5.33;;;;;13.69;66.75;101641.22;5077332;27;45545;-71
2023/09/25 05:38:16;;;;;;;;;7.33;5.00;;;;;13.71;66.65;101654.38;5076697;27;45583;-68
2023/09/25 05:40:41;;;;;;;;;7.67;5.33;;;;;13.66;66.62;101629.78;5078462;27;45254;-70
2023/09/25 05:43:07;;;;;;;;;9.00;6.33;;;;;13.62;66.78;101623.66;5076954;27;45320;-67
2023/09/25 05:45:32;;;;;;;;;9.67;7.00;;;;;13.67;67.17;101637.72;5077025;27;45347;-67
2023/09/25 05:47:58;;;;;;;;;8.00;4.67;;;;;13.58;66.86;101629.78;5089489;27;45590;-68
2023/09/25 05:50:26;;;;;;;;;7.67;6.00;;;;;13.62;67.03;101642.09;5075873;27;45284;-71
2023/09/25 05:52:52;;;;;;;;;3.67;3.00;;;;;13.62;66.75;101638.56;5068744;27;45350;-71
2023/09/25 05:55:18;;;;;;;;;10.33;4.67;;;;;13.70;66.72;101661.41;5076816;28;46422;-70
2023/09/25 05:57:47;;;;;;;;;9.00;7.67;;;;;13.70;66.60;101650.00;5077033;27;45406;-72
2023/09/25 06:00:18;;;;;;;;;5.67;5.33;;;;;13.74;67.07;101665.81;5071994;27;45721;-71
2023/09/25 06:02:44;;;;;;;;;8.00;7.67;;;;;13.68;66.27;101643.84;5067887;27;46146;-69
2023/09/25 06:05:15;;;;;;;;;7.00;6.00;;;;;13.81;66.72;101669.38;5076339;27;45488;-69
2023/09/25 06:07:42;;;;;;;;;6.00;6.00;;;;;13.85;66.51;101668.47;5074896;28;45363;-72
2023/09/25 06:10:08;;;;;;;;;4.33;4.33;;;;;13.78;66.21;101656.16;5065991;27;45519;-71
2023/09/25 06:12:33;;;;;;;;;11.33;8.33;;;;;13.81;65.67;101665.81;5072723;27;46335;-73
2023/09/25 06:15:03;;;;;;;;;6.67;6.00;;;;;13.81;65.82;101663.19;5073416;28;45312;-72
2023/09/25 06:17:31;;;;;;;;;6.00;5.67;;;;;13.92;65.91;101677.28;5074101;27;45424;-72
2023/09/25 06:19:57;;;;;;;;;7.33;6.00;;;;;13.73;65.75;101644.75;5076589;27;45840;-69
2023/09/25 06:22:22;;;;;;;;;7.00;6.00;;;;;14.10;65.35;101660.66;5076637;27;45371;-73
2023/09/25 06:24:51;;;;;;;;;9.00;7.33;;;;;14.03;63.98;101601.81;5076397;27;45524;-71
2023/09/25 06:27:16;;;;;;;;;8.00;7.33;;;;;14.42;63.92;101665.97;5076263;27;45550;-72
2023/09/25 06:29:45;;;;;;;;;5.67;5.67;;;;;14.44;64.11;101677.41;5075806;27;45712;-70
2023/09/25 06:32:11;;;;;;;;;7.33;6.00;;;;;14.26;64.10;101651.00;5075958;27;46373;-71
2023/09/25 06:34:37;;;;;;;;;8.00;6.33;;;;;14.39;64.73;101676.50;5075956;27;45503;-70
2023/09/25 06:37:02;;;;;;;;;7.67;6.00;;;;;14.43;64.13;101681.78;5074716;27;45419;-72
2023/09/25 06:39:28;;;;;;;;;11.33;6.33;;;;;14.14;64.02;101630.78;5076386;27;45287;-73
2023/09/25 06:41:53;;;;;;;;;9.67;5.67;;;;;14.52;63.97;101687.94;5075647;27;46575;-71
2023/09/25 06:44:20;;;;;;;;;8.00;6.67;;;;;14.40;63.73;101658.06;5068087;28;45450;-73
2023/09/25 06:46:46;;;;;;;;;7.67;6.67;;;;;14.54;63.90;101686.22;5074162;27;45472;-73
2023/09/25 06:49:11;;;;;;;;;5.00;4.67;;;;;14.50;64.31;101671.22;5073112;28;45586;-72
2023/09/25 06:51:37;;;;;;;;;12.00;6.00;;;;;14.56;64.05;101668.66;5078019;27;45305;-72
2023/09/25 06:54:03;;;;;;;;;7.33;7.00;;;;;14.52;63.71;101658.94;5080714;27;45523;-71
2023/09/25 06:56:28;;;;;;;;;6.33;6.33;;;;;14.58;63.33;101659.00;5081321;27;45334;-71
2023/09/25 06:58:54;;;;;;;;;12.00;8.33;;;;;14.68;63.34;101668.66;5079787;27;45349;-72
2023/09/25 07:01:21;;;;;;;;;5.00;4.00;;;;;14.91;62.88;101673.91;5079465;27;45563;-72
2023/09/25 07:03:46;;;;;;;;;9.00;8.00;;;;;15.05;62.43;101668.63;5076016;27;45445;-71
2023/09/25 07:06:12;;;;;;;;;7.67;7.33;;;;;14.92;62.52;101683.56;5080877;27;45379;-72
2023/09/25 07:08:41;;;;;;;;;6.00;6.00;;;;;14.91;62.26;101686.22;5079976;27;45324;-72
2023/09/25 07:11:07;;;;;;;;;9.33;7.00;;;;;14.77;62.83;101689.75;5079308;27;46801;-72
2023/09/25 07:13:33;;;;;;;;;8.67;8.00;;;;;14.88;62.94;101702.03;5074644;27;45377;-74
2023/09/25 07:16:08;;;;;;;;;10.67;6.67;;;;;14.93;62.05;101698.53;5078308;27;45460;-72
2023/09/25 07:18:35;;;;;;;;;13.33;7.00;;;;;14.94;62.19;101704.69;5082637;27;45344;-72
2023/09/25 07:21:03;;;;;;;;;12.67;7.33;;;;;14.94;62.43;101692.38;5066045;27;46381;-69
2023/09/25 07:23:32;;;;;;;;;9.33;8.00;;;;;15.01;61.97;101680.94;5046117;27;46142;-72
2023/09/25 07:26:04;;;;;;;;;11.00;8.33;;;;;15.30;61.76;101700.25;5071605;27;45415;-71
2023/09/25 07:28:31;;;;;;;;;10.00;7.67;;;;;15.32;61.51;101695.84;5071598;27;45586;-73
2023/09/25 07:30:59;;;;;;;;;8.00;7.67;;;;;15.41;61.59;101691.41;5070584;27;46246;-71
2023/09/25 07:33:25;;;;;;;;;6.33;6.33;;;;;15.52;61.46;101693.13;5072546;27;46230;-71
2023/09/25 07:35:50;;;;;;;;;6.00;5.33;;;;;15.75;60.63;101685.16;5071340;27;45178;-71
2023/09/25 07:38:16;;;;;;;;;10.67;7.67;;;;;15.82;60.22;101671.03;5073619;27;45701;-72
2023/09/25 07:40:41;;;;;;;;;8.00;5.00;;;;;16.07;59.57;101690.31;5069908;27;48157;-71
2023/09/25 07:43:07;;;;;;;;;9.67;7.00;;;;;16.15;59.27;101682.31;5078457;27;45561;-71
2023/09/25 07:45:32;;;;;;;;;10.33;7.33;;;;;16.31;59.05;101692.78;5083237;27;45827;-71
2023/09/25 07:47:59;;;;;;;;;7.00;6.33;;;;;16.36;58.37;101692.75;5077441;27;45428;-68
2023/09/25 07:50:25;;;;;;;;;9.67;8.67;;;;;16.37;58.64;101707.72;5077126;27;45498;-68
2023/09/25 07:52:54;;;;;;;;;6.67;5.33;;;;;16.43;58.39;101691.81;5074410;27;45750;-70
2023/09/25 07:55:21;;;;;;;;;7.67;6.00;;;;;16.35;58.31;101696.31;5075929;27;45527;-70
2023/09/25 07:57:48;;;;;;;;;6.67;6.67;;;;;16.28;58.41;101681.38;5079653;27;45304;-70
2023/09/25 08:00:25;;;;;;;;;7.33;6.33;;;;;16.18;58.33;101647.94;5078519;27;45622;-69
2023/09/25 08:02:52;;;;;;;;;7.67;6.33;;;;;16.41;58.92;101685.66;5079138;27;45327;-70
2023/09/25 08:05:22;;;;;;;;;9.67;7.33;;;;;16.50;58.62;101696.19;5079486;27;45394;-69
2023/09/25 08:07:54;;;;;;;;;9.33;6.33;;;;;16.64;58.12;101679.34;5072741;27;45528;-69
2023/09/25 08:10:20;;;;;;;;;10.00;7.33;;;;;16.90;58.66;101698.56;5075376;27;46399;-72
2023/09/25 08:12:52;;;;;;;;;11.67;7.33;;;;;16.89;57.60;101683.53;5076862;27;45471;-71
2023/09/25 08:15:18;;;;;;;;;7.00;6.67;;;;;17.01;57.51;101705.50;5077286;27;45507;-75
2023/09/25 08:17:44;;;;;;;;;7.33;7.00;;;;;16.98;58.27;101692.31;5078984;27;45517;-69
2023/09/25 08:20:16;;;;;;;;;9.00;7.33;;;;;16.94;57.55;101696.72;5078683;27;45345;-69
2023/09/25 08:22:42;;;;;;;;;8.00;8.00;;;;;16.95;57.76;101712.63;5068762;27;45527;-68
2023/09/25 08:25:09;;;;;;;;;9.33;8.33;;;;;16.91;57.83;101702.94;5077080;27;45536;-70
2023/09/25 08:27:39;;;;;;;;;9.33;7.33;;;;;17.05;57.55;101701.94;5078318;27;45514;-69
2023/09/25 08:30:06;;;;;;;;;11.67;9.67;;;;;17.21;57.43;101702.69;5069646;27;47490;-70
2023/09/25 08:32:32;;;;;;;;;10.00;9.67;;;;;17.30;57.11;101703.47;5075239;27;45778;-69
2023/09/25 08:35:02;;;;;;;;;14.67;9.33;;;;;17.25;56.87;101683.19;5077331;27;45412;-71
2023/09/25 08:37:27;;;;;;;;;9.00;6.67;;;;;17.29;56.75;101677.84;5075069;27;45587;-72
2023/09/25 08:39:54;;;;;;;;;9.33;8.00;;;;;17.55;57.14;101695.22;5076353;27;45980;-73
2023/09/25 08:42:25;;;;;;;;;11.67;10.00;;;;;17.58;56.14;101689.88;5075791;27;45649;-70
2023/09/25 08:44:52;;;;;;;;;9.00;7.67;;;;;17.78;56.19;101693.19;5072864;27;45804;-69
2023/09/25 08:47:22;;;;;;;;;11.00;9.00;;;;;17.87;55.72;101688.69;5076336;27;45508;-68
2023/09/25 08:49:51;;;;;;;;;7.00;7.00;;;;;18.02;55.34;101696.44;5073862;27;45754;-68
2023/09/25 08:52:18;;;;;;;;;9.33;8.00;;;;;17.95;55.62;101694.78;5074646;27;46419;-67
2023/09/25 08:54:44;;;;;;;;;8.67;7.67;;;;;17.95;55.39;101698.28;5075349;27;45817;-67
2023/09/25 08:57:12;;;;;;;;;10.67;9.33;;;;;18.01;55.12;101700.88;5070051;27;45463;-67
2023/09/25 08:59:39;;;;;;;;;9.67;8.33;;;;;18.04;55.17;101699.97;5071423;27;46761;-68
2023/09/25 09:02:08;;;;;;;;;10.67;8.67;;;;;18.15;55.01;101697.13;5073583;27;45443;-66
2023/09/25 09:04:35;;;;;;;;;14.67;8.00;;;;;18.35;54.38;101700.38;5076156;27;45361;-73
2023/09/25 09:07:01;;;;;;;;;6.33;6.33;;;;;18.44;54.39;101680.81;5076212;27;45402;-72
2023/09/25 09:09:27;;;;;;;;;10.33;9.00;;;;;18.63;54.00;101679.63;5075833;27;46309;-73
2023/09/25 09:11:52;;;;;;;;;44.00;37.25;;;;;19.05;53.39;101685.13;5073254;27;45354;-69
2023/09/25 09:14:39;;;;;;;;;18.33;14.67;;;;;19.36;52.83;101687.22;5075360;28;45360;-69
2023/09/25 09:17:06;;;;;;;;;4.67;4.67;;;;;19.35;52.62;101672.16;5072952;27;45569;-71
2023/09/25 09:19:51;;;;;;;;;13.00;11.33;;;;;19.53;51.81;101692.19;5075837;27;45920;-68
2023/09/25 09:22:18;;;;;;;;;15.33;13.67;;;;;19.41;51.98;101673.81;5070307;27;45386;-70
2023/09/25 09:24:44;;;;;;;;;12.00;7.67;;;;;19.61;51.44;101702.66;5074268;27;45607;-69
2023/09/25 09:27:11;;;;;;;;;8.00;8.00;;;;;19.65;52.07;101696.38;5074734;27;45407;-70
2023/09/25 09:29:45;;;;;;;;;12.67;11.00;;;;;19.68;50.94;101714.94;5073503;27;45611;-69
2023/09/25 09:32:17;;;;;;;;;9.33;8.33;;;;;19.53;51.55;101702.81;5074043;27;45418;-70
2023/09/25 09:34:43;;;;;;;;;11.67;9.00;;;;;19.64;51.48;101715.88;5073406;28;45965;-69
2023/09/25 09:37:09;;;;;;;;;11.67;10.33;;;;;19.81;51.34;101713.81;5074431;28;45664;-70
2023/09/25 09:39:36;;;;;;;;;9.00;9.00;;;;;19.96;51.63;101707.28;5076810;27;45949;-70
2023/09/25 09:42:08;;;;;;;;;13.67;9.33;;;;;20.06;50.77;101719.44;5074254;27;46574;-69
2023/09/25 09:44:34;;;;;;;;;10.67;8.67;;;;;20.11;51.08;101706.06;5074010;27;45566;-67
2023/09/25 09:47:08;;;;;;;;;9.00;7.67;;;;;20.27;50.66;101710.13;5069970;27;45478;-69
2023/09/25 09:49:39;;;;;;;;;8.67;8.67;;;;;20.36;49.95;101685.09;5075879;27;46633;-70
2023/09/25 09:52:05;;;;;;;;;10.67;9.00;;;;;20.80;49.88;101708.91;5073956;27;45554;-70
2023/09/25 09:54:35;;;;;;;;;12.33;10.00;;;;;20.96;49.48;101711.13;5074553;27;45393;-69
2023/09/25 09:57:02;;;;;;;;;16.67;9.67;;;;;21.09;48.78;101718.78;5068314;27;45640;-70
2023/09/25 09:59:28;;;;;;;;;8.67;7.33;;;;;21.13;48.28;101697.38;5074668;28;45451;-71
2023/09/25 10:01:57;;;;;;;;;5.33;5.33;;;;;21.36;47.95;101710.06;5071658;27;45645;-69
2023/09/25 10:04:23;;;;;;;;;12.00;10.33;;;;;21.51;47.90;101715.94;5074848;27;45402;-69
2023/09/25 10:06:52;;;;;;;;;12.00;10.33;;;;;21.59;47.71;101717.47;5074815;27;45375;-69
2023/09/25 10:09:18;;;;;;;;;10.67;8.33;;;;;21.69;47.13;101714.50;5073999;28;46796;-71
2023/09/25 10:11:52;;;;;;;;;12.33;8.33;;;;;21.79;47.09;101718.69;5075865;27;45477;-68
2023/09/25 10:14:26;;;;;;;;;10.00;8.67;;;;;21.96;47.22;101719.03;5077847;27;45595;-74
2023/09/25 10:17:03;;;;;;;;;10.33;8.67;;;;;22.16;47.72;101726.47;5076429;27;45574;-73
2023/09/25 10:19:41;;;;;;;;;7.33;5.33;;;;;22.45;47.25;101716.69;5077267;27;45546;-72
2023/09/25 10:22:24;;;;;;;;;7.00;6.67;;;;;22.55;45.54;101693.25;5077382;27;45488;-72
2023/09/25 10:25:09;;;;;;;;;7.00;7.00;;;;;22.85;45.51;101708.25;5076460;27;45484;-72
2023/09/25 10:27:36;;;;;;;;;10.67;8.00;;;;;22.83;44.38;101685.19;5076253;27;45495;-72
2023/09/25 10:30:08;;;;;;;;;8.33;6.67;;;;;23.14;44.41;101695.72;5075957;27;45633;-72
2023/09/25 10:32:38;;;;;;;;;8.00;6.33;;;;;23.34;43.62;101705.69;5075645;27;45593;-70
2023/09/25 10:35:42;;;;;;;;;2.00;2.00;;;;;23.62;43.84;101708.22;5078160;27;45523;-72
2023/09/25 10:38:13;;;;;;;;;6.00;6.00;;;;;24.05;43.13;101697.72;5077880;28;45231;-71
2023/09/25 10:40:44;;;;;;;;;7.67;7.00;;;;;24.54;42.51;101696.66;5063832;27;45503;-72
2023/09/25 10:43:09;;;;;;;;;9.00;7.50;;;;;24.74;41.99;101700.31;5060086;27;45481;-73
2023/09/25 10:45:37;;;;;;;;;8.50;6.50;;;;;24.92;41.32;101675.41;5073256;27;45410;-69
2023/09/25 10:48:03;;;;;;;;;8.25;7.75;;;;;24.98;42.00;101663.53;5063076;28;45332;-72
2023/09/25 10:50:29;;;;;;;;;7.25;6.00;;;;;24.92;42.18;101662.00;5076090;27;47698;-72
2023/09/25 10:52:55;;;;;;;;;8.25;6.25;;;;;25.57;41.56;101684.16;5076090;27;45491;-69
2023/09/25 10:55:20;;;;;;;;;6.25;5.50;;;;;26.08;40.11;101684.53;5062997;27;45846;-71
2023/09/25 10:57:46;;;;;;;;;7.50;5.00;;;;;26.47;39.45;101674.59;5061552;27;45472;-71
2023/09/25 11:00:15;;;;;;;;;5.50;5.50;;;;;26.47;38.71;101683.50;5074274;28;45606;-73
2023/09/25 11:02:42;;;;;;;;;8.00;6.75;;;;;25.63;38.65;101615.06;5068749;28;46503;-73
2023/09/25 11:05:09;;;;;;;;;9.50;6.50;;;;;25.53;38.90;101668.28;5072371;27;45269;-69
2023/09/25 11:07:37;;;;;;;;;6.50;6.00;;;;;25.32;39.66;101697.81;5056789;28;45484;-69
2023/09/25 11:10:04;;;;;;;;;8.00;6.75;;;;;25.32;39.46;101689.78;5074848;28;46713;-72
2023/09/25 11:12:30;;;;;;;;;5.75;5.75;;;;;25.35;39.95;101689.63;5075447;27;45503;-71
2023/09/25 11:14:57;;;;;;;;;9.75;9.25;;;;;24.94;40.06;101673.53;5062138;27;45401;-72
2023/09/25 11:17:23;;;;;;;;;8.50;6.25;;;;;24.96;40.24;101685.06;5062097;27;45555;-74
2023/09/25 11:19:52;;;;;;;;;7.75;7.25;;;;;25.05;40.29;101674.88;5075558;27;46228;-72
2023/09/25 11:22:24;;;;;;;;;7.00;6.25;;;;;25.14;40.46;101701.28;5068196;27;45539;-73
2023/09/25 11:24:58;;;;;;;;;6.00;6.00;;;;;25.13;41.10;101704.91;5076994;28;45569;-68